Time;durP1;ratioP1;P1;durP2;ratioP2;P2;SDS_P1;SDS_P2;PMS_P1;PMS_P2;Temp;Humidity;BMP_temperature;BMP_pressure;BME280_temperature;BME280_humidity;BME280_pressure;Samples;Min_cycle;Max_cycle;Signal;HPM_P1;HPM_P2
2022/09/20 00:01:50;;;;;;;6.35;0.98;;;11.30;95.50;;;;;;4131460;28;20042;-83
2022/09/20 00:03:54;;;;;;;7.28;1.45;;;11.30;95.50;;;;;;4149041;28;20041;-83
2022/09/20 00:05:54;;;;;;;5.68;0.93;;;11.20;95.50;;;;;;4149189;28;20054;-83
2022/09/20 00:07:55;;;;;;;10.88;1.20;;;11.20;95.60;;;;;;4149425;28;20567;-83
2022/09/20 00:09:56;;;;;;;7.65;1.00;;;11.20;95.60;;;;;;4131755;28;20054;-83
2022/09/20 00:11:57;;;;;;;3.83;0.95;;;11.20;95.60;;;;;;4149724;28;20068;-83
2022/09/20 00:14:01;;;;;;;3.08;0.55;;;11.20;95.60;;;;;;4148945;28;20042;-84
2022/09/20 00:16:11;;;;;;;5.50;0.88;;;11.20;95.50;;;;;;4149803;28;20573;-82
2022/09/20 00:18:12;;;;;;;5.40;1.42;;;11.10;95.40;;;;;;4149487;28;20046;-83
2022/09/20 00:20:13;;;;;;;2.55;0.70;;;11.10;95.30;;;;;;4156934;28;20044;-82
2022/09/20 00:22:13;;;;;;;6.28;0.63;;;11.00;95.20;;;;;;4148275;28;20515;-83
2022/09/20 00:24:14;;;;;;;6.93;0.77;;;11.00;95.30;;;;;;4165991;28;20056;-83
2022/09/20 00:26:16;;;;;;;2.50;0.70;;;10.90;95.50;;;;;;4166129;28;20467;-82
2022/09/20 00:28:16;;;;;;;10.00;1.00;;;10.80;95.50;;;;;;4166320;28;20041;-82
2022/09/20 00:30:17;;;;;;;4.13;1.17;;;10.80;95.60;;;;;;4166019;28;20079;-82
2022/09/20 00:32:18;;;;;;;3.20;0.85;;;10.80;95.70;;;;;;4165191;28;20056;-82
2022/09/20 00:36:38;;;;;;;2.58;0.70;;;10.70;95.70;;;;;;4165958;28;20053;-83
2022/09/20 00:38:41;;;;;;;3.10;0.70;;;10.80;95.90;;;;;;4164575;28;20041;-84
2022/09/20 00:40:43;;;;;;;5.15;1.15;;;10.70;95.90;;;;;;4165303;28;20060;-83
2022/09/20 00:42:44;;;;;;;7.30;1.10;;;10.70;95.80;;;;;;4164575;28;20054;-83
2022/09/20 00:45:04;;;;;;;5.03;0.90;;;10.70;95.90;;;;;;4164905;28;20125;-83
2022/09/20 00:47:08;;;;;;;5.60;1.10;;;10.70;96.10;;;;;;4163773;28;20045;-83
2022/09/20 00:49:20;;;;;;;8.48;1.00;;;10.70;96.10;;;;;;4165064;28;20057;-83
2022/09/20 00:51:33;;;;;;;7.20;1.50;;;10.70;96.10;;;;;;4164900;28;20038;-82
2022/09/20 00:53:40;;;;;;;7.38;1.10;;;10.60;96.20;;;;;;4164492;28;20049;-83
2022/09/20 00:55:48;;;;;;;4.78;0.90;;;10.60;96.30;;;;;;4164903;28;20049;-82
2022/09/20 00:57:50;;;;;;;5.18;0.65;;;10.60;96.30;;;;;;4164834;28;20541;-83
2022/09/20 00:59:52;;;;;;;5.90;0.90;;;10.50;96.40;;;;;;4146989;28;20124;-83
2022/09/20 01:02:08;;;;;;;9.25;1.60;;;10.60;96.30;;;;;;4147225;28;20061;-82
2022/09/20 01:04:13;;;;;;;13.00;1.27;;;10.50;96.20;;;;;;4148900;28;20935;-82
2022/09/20 01:06:15;;;;;;;33.45;1.50;;;10.50;96.30;;;;;;4164750;28;20065;-82
2022/09/20 01:08:17;;;;;;;5.25;1.52;;;10.40;96.20;;;;;;4142930;28;20054;-83
2022/09/20 01:10:19;;;;;;;4.65;0.52;;;10.40;96.30;;;;;;4130389;28;20077;-83
2022/09/20 01:12:24;;;;;;;4.53;0.90;;;10.40;96.20;;;;;;4146508;28;20042;-83
2022/09/20 01:14:26;;;;;;;7.55;1.10;;;10.40;96.10;;;;;;4147888;28;20103;-83
2022/09/20 01:16:29;;;;;;;5.32;1.00;;;10.40;96.10;;;;;;4129557;28;20046;-83
2022/09/20 01:18:31;;;;;;;1.80;0.52;;;10.40;96.20;;;;;;4147559;28;20506;-83
2022/09/20 01:20:36;;;;;;;3.47;0.80;;;10.30;96.10;;;;;;4130362;28;20049;-83
2022/09/20 01:22:50;;;;;;;5.70;0.98;;;10.30;96.30;;;;;;4146527;28;20463;-83
2022/09/20 01:25:13;;;;;;;5.07;0.60;;;10.20;96.50;;;;;;4130222;28;20137;-83
2022/09/20 01:27:35;;;;;;;2.75;0.70;;;10.20;96.60;;;;;;4147106;28;20192;-83
2022/09/20 01:29:41;;;;;;;5.18;0.82;;;10.20;96.80;;;;;;4145721;28;20496;-82
2022/09/20 01:31:51;;;;;;;3.55;0.93;;;10.10;96.70;;;;;;4143899;28;20041;-82
2022/09/20 01:34:00;;;;;;;5.97;0.85;;;10.10;96.70;;;;;;4147575;28;20053;-83
2022/09/20 01:36:04;;;;;;;5.38;0.85;;;10.10;96.80;;;;;;4130102;28;20042;-83
2022/09/20 01:38:13;;;;;;;5.47;0.85;;;10.00;96.80;;;;;;4129456;28;20050;-83
2022/09/20 01:40:26;;;;;;;9.98;2.28;;;10.00;96.90;;;;;;4147651;28;20046;-83
2022/09/20 01:42:36;;;;;;;3.55;0.90;;;9.90;96.90;;;;;;4129844;28;20050;-83
2022/09/20 01:44:59;;;;;;;3.88;0.57;;;9.90;96.90;;;;;;4147159;28;20502;-83
2022/09/20 01:47:26;;;;;;;6.00;0.77;;;9.80;97.10;;;;;;4147396;28;20060;-83
2022/09/20 01:49:44;;;;;;;2.42;0.93;;;9.80;97.10;;;;;;4128960;28;20050;-83
2022/09/20 01:51:50;;;;;;;2.47;0.65;;;9.80;97.30;;;;;;4129914;28;20045;-83
2022/09/20 01:54:17;;;;;;;2.45;0.50;;;9.70;97.30;;;;;;4147342;28;20073;-83
2022/09/20 01:56:56;;;;;;;5.70;1.00;;;9.70;97.30;;;;;;4129869;28;20516;-83
2022/09/20 01:59:15;;;;;;;;;;;9.60;97.40;;;;;;4129955;28;20658;-83
2022/09/20 02:02:06;;;;;;;4.78;0.88;;;9.60;98.20;;;;;;4145859;28;19928;-83
2022/09/20 02:04:59;;;;;;;2.17;0.85;;;9.50;97.90;;;;;;4097002;28;20085;-83
2022/09/20 02:07:11;;;;;;;3.60;0.90;;;9.50;97.80;;;;;;4047230;28;20059;-83
2022/09/20 02:09:38;;;;;;;5.65;1.65;;;9.60;97.60;;;;;;4145875;28;20057;-83
2022/09/20 02:11:53;;;;;;;4.32;0.70;;;9.50;97.70;;;;;;4143452;28;20108;-83
2022/09/20 02:14:03;;;;;;;5.35;0.80;;;9.50;97.50;;;;;;4129498;28;20401;-83
2022/09/20 02:17:12;;;;;;;5.00;1.02;;;9.50;97.60;;;;;;4129567;28;20086;-83
2022/09/20 02:19:32;;;;;;;6.07;0.80;;;9.40;98.00;;;;;;4069177;29;20137;-83
2022/09/20 02:21:46;;;;;;;3.20;0.55;;;9.40;98.00;;;;;;4081012;29;20044;-83
2022/09/20 02:23:50;;;;;;;6.38;1.38;;;9.40;97.90;;;;;;4092517;28;20124;-83
2022/09/20 02:26:04;;;;;;;3.15;0.75;;;9.40;98.00;;;;;;4142968;28;20049;-83
2022/09/20 02:28:34;;;;;;;6.00;0.75;;;9.40;98.00;;;;;;4132722;28;20467;-83
2022/09/20 02:31:01;;;;;;;4.25;0.70;;;9.30;98.00;;;;;;4166611;28;20041;-83
2022/09/20 02:33:14;;;;;;;7.38;1.35;;;9.30;97.90;;;;;;4149362;28;20423;-83
2022/09/20 02:35:18;;;;;;;2.78;1.20;;;9.30;97.80;;;;;;4167201;28;20049;-83
2022/09/20 02:37:56;;;;;;;5.85;1.00;;;9.20;97.80;;;;;;4149326;28;20046;-83
2022/09/20 02:40:31;;;;;;;3.78;0.82;;;9.20;98.10;;;;;;4167138;28;20092;-83
2022/09/20 02:42:53;;;;;;;5.45;1.10;;;9.10;98.10;;;;;;4167053;28;20408;-83
2022/09/20 02:45:18;;;;;;;5.05;1.13;;;9.10;98.10;;;;;;4166329;28;20068;-83
2022/09/20 02:47:38;;;;;;;3.45;0.90;;;9.10;98.00;;;;;;4149242;28;20471;-83
2022/09/20 02:50:16;;;;;;;7.53;1.30;;;9.10;98.20;;;;;;4166483;28;20151;-83
2022/09/20 02:52:23;;;;;;;5.85;1.05;;;9.00;98.10;;;;;;4166948;28;20041;-83
2022/09/20 02:54:58;;;;;;;4.82;0.95;;;9.00;98.00;;;;;;4149153;28;20127;-83
2022/09/20 02:57:10;;;;;;;5.68;0.80;;;9.00;98.10;;;;;;4166431;28;20041;-84
2022/09/20 02:59:39;;;;;;;4.88;0.80;;;9.00;98.10;;;;;;4166115;28;20037;-84
2022/09/20 03:01:53;;;;;;;5.38;0.70;;;9.00;98.20;;;;;;4165814;28;20144;-83
2022/09/20 03:04:12;;;;;;;7.55;0.90;;;9.00;98.10;;;;;;4150002;28;20463;-83
2022/09/20 03:06:43;;;;;;;6.20;0.88;;;9.00;98.20;;;;;;4150368;28;20077;-82
2022/09/20 03:09:13;;;;;;;2.65;0.90;;;9.00;98.10;;;;;;4132207;28;20604;-82
2022/09/20 03:11:38;;;;;;;5.65;0.75;;;9.00;98.10;;;;;;4150035;28;20081;-82
2022/09/20 03:14:21;;;;;;;6.18;0.80;;;9.00;97.90;;;;;;4150223;28;20045;-83
2022/09/20 03:16:28;;;;;;;7.18;1.45;;;9.00;98.10;;;;;;4147990;28;20426;-83
2022/09/20 03:18:43;;;;;;;3.35;0.70;;;9.00;98.10;;;;;;4147784;28;20077;-83
2022/09/20 03:20:47;;;;;;;8.00;1.35;;;9.00;98.10;;;;;;4149343;28;20491;-83
2022/09/20 03:23:12;;;;;;;5.57;0.70;;;9.00;98.10;;;;;;4149619;28;20053;-84
2022/09/20 03:25:36;;;;;;;4.07;1.05;;;9.00;98.10;;;;;;4132327;28;20046;-82
2022/09/20 03:27:53;;;;;;;4.25;0.77;;;8.90;98.10;;;;;;4149783;28;20188;-83
2022/09/20 03:30:32;;;;;;;8.63;1.05;;;8.90;98.10;;;;;;4132275;28;20153;-82
2022/09/20 03:32:52;;;;;;;6.30;0.82;;;8.90;98.20;;;;;;4131078;28;20046;-82
2022/09/20 03:35:28;;;;;;;9.10;1.48;;;8.90;98.20;;;;;;4132538;28;20164;-82
2022/09/20 03:37:49;;;;;;;4.55;0.63;;;8.90;98.20;;;;;;4149582;28;20041;-82
2022/09/20 03:40:27;;;;;;;5.82;1.27;;;8.90;98.20;;;;;;4118471;28;20051;-82
2022/09/20 03:42:29;;;;;;;6.95;1.52;;;8.90;98.30;;;;;;4107515;28;20094;-82
2022/09/20 03:44:47;;;;;;;6.35;1.10;;;8.90;98.30;;;;;;4149951;28;20838;-81
2022/09/20 03:46:55;;;;;;;4.35;0.90;;;8.90;98.30;;;;;;4150152;28;20045;-82
2022/09/20 03:49:28;;;;;;;3.92;1.50;;;8.80;98.30;;;;;;4132741;28;20060;-82
2022/09/20 03:51:29;;;;;;;8.98;0.93;;;8.90;98.40;;;;;;4149800;28;20046;-81
2022/09/20 03:53:49;;;;;;;6.07;1.75;;;8.90;98.30;;;;;;4149306;28;20123;-82
2022/09/20 03:55:53;;;;;;;2.15;0.60;;;8.90;98.30;;;;;;4138684;28;20512;-81
2022/09/20 03:58:14;;;;;;;5.50;0.60;;;8.80;98.30;;;;;;4166116;28;20048;-82
2022/09/20 04:00:22;;;;;;;3.95;0.63;;;8.80;98.40;;;;;;4148676;28;20084;-81
2022/09/20 04:02:31;;;;;;;2.38;1.45;;;8.80;98.30;;;;;;4148236;28;20080;-82
2022/09/20 04:04:49;;;;;;;8.50;0.77;;;8.80;98.40;;;;;;4166055;28;20088;-81
2022/09/20 04:06:53;;;;;;;4.90;1.02;;;8.80;98.40;;;;;;4148371;28;20404;-82
2022/09/20 04:09:18;;;;;;;6.75;0.90;;;8.80;98.40;;;;;;4165760;28;20057;-82
2022/09/20 04:11:27;;;;;;;7.07;0.80;;;8.70;98.50;;;;;;4165767;28;20384;-82
2022/09/20 04:13:38;;;;;;;12.95;1.70;;;8.80;98.60;;;;;;4163833;28;20048;-82
2022/09/20 04:16:02;;;;;;;7.72;0.98;;;8.70;98.50;;;;;;4149103;28;20050;-81
2022/09/20 04:18:03;;;;;;;5.45;1.10;;;8.70;98.60;;;;;;4149242;28;20404;-82
2022/09/20 04:20:38;;;;;;;4.55;0.75;;;8.80;98.60;;;;;;4149177;28;20086;-82
2022/09/20 04:22:43;;;;;;;8.25;1.02;;;8.80;98.80;;;;;;4131568;28;20108;-82
2022/09/20 04:25:03;;;;;;;7.78;0.80;;;8.80;98.70;;;;;;4148876;28;20129;-82
2022/09/20 04:27:22;;;;;;;4.75;0.77;;;8.80;98.80;;;;;;4131662;28;20089;-82
2022/09/20 04:29:51;;;;;;;4.68;0.88;;;8.80;98.80;;;;;;4131676;28;20058;-82
2022/09/20 04:32:19;;;;;;;7.05;1.33;;;8.80;99.10;;;;;;4148449;28;20080;-82
2022/09/20 04:36:27;;;;;;;3.03;0.60;;;8.80;98.90;;;;;;4131269;28;20068;-83
2022/09/20 04:37:05;;;;;;;5.32;0.95;;;8.80;99.00;;;;;;4148494;28;20810;-83
2022/09/20 04:39:24;;;;;;;6.43;0.98;;;8.80;99.00;;;;;;4148836;28;20536;-82
2022/09/20 04:42:14;;;;;;;6.70;1.65;;;9.10;99.20;;;;;;4131265;28;20046;-83
2022/09/20 04:44:45;;;;;;;3.80;0.73;;;8.80;99.20;;;;;;4114862;28;20528;-83
2022/09/20 04:47:14;;;;;;;3.25;0.73;;;8.80;99.20;;;;;;4147021;28;20096;-83
2022/09/20 04:49:43;;;;;;;4.40;0.90;;;8.80;99.30;;;;;;4147932;28;20081;-82
2022/09/20 04:52:05;;;;;;;7.55;1.23;;;8.80;99.40;;;;;;4147163;28;20052;-82
2022/09/20 04:54:20;;;;;;;2.47;0.93;;;8.80;99.40;;;;;;4148449;28;20041;-82
2022/09/20 04:56:48;;;;;;;9.13;1.40;;;8.80;99.40;;;;;;4131582;28;20052;-82
2022/09/20 04:59:04;;;;;;;4.50;1.00;;;8.80;99.60;;;;;;4140576;28;20453;-82
2022/09/20 05:01:15;;;;;;;4.55;0.80;;;8.80;99.60;;;;;;4150958;28;20276;-82
2022/09/20 05:03:28;;;;;;;2.83;0.68;;;8.80;99.60;;;;;;4155806;28;20081;-82
2022/09/20 05:05:42;;;;;;;2.63;0.55;;;8.80;99.60;;;;;;4149371;28;20049;-82
2022/09/20 05:08:04;;;;;;;2.67;0.82;;;8.80;99.70;;;;;;4162184;28;20108;-82
2022/09/20 05:10:33;;;;;;;4.30;0.65;;;8.80;99.70;;;;;;4166183;28;20045;-82
2022/09/20 05:12:52;;;;;;;5.32;1.05;;;8.90;99.90;;;;;;4165614;28;20077;-82
2022/09/20 05:15:18;;;;;;;6.78;0.65;;;8.90;99.90;;;;;;4164766;28;20041;-82
2022/09/20 05:17:22;;;;;;;2.40;0.80;;;9.00;99.90;;;;;;4147459;28;20156;-82
2022/09/20 05:19:32;;;;;;;5.82;1.45;;;9.00;99.90;;;;;;4156334;28;20042;-82
2022/09/20 05:21:56;;;;;;;10.05;1.35;;;9.10;99.80;;;;;;4148929;28;20129;-83
2022/09/20 05:24:29;;;;;;;3.90;0.88;;;9.10;99.80;;;;;;4147910;28;20034;-83
2022/09/20 05:26:42;;;;;;;4.68;0.65;;;9.20;99.90;;;;;;4109971;28;20058;-83
2022/09/20 05:29:17;;;;;;;2.75;0.82;;;9.20;99.90;;;;;;4148991;28;20395;-83
2022/09/20 05:31:40;;;;;;;11.75;2.25;;;9.30;99.90;;;;;;4134132;28;20077;-82
2022/09/20 05:34:03;;;;;;;4.97;1.25;;;9.40;99.90;;;;;;4148788;28;20137;-82
2022/09/20 05:36:16;;;;;;;1.17;0.80;;;9.40;99.90;;;;;;4148688;28;20473;-82
2022/09/20 05:38:25;;;;;;;8.60;1.27;;;9.50;99.90;;;;;;4148411;28;20046;-82
2022/09/20 05:40:37;;;;;;;;;;;9.50;99.90;;;;;;4150200;28;20060;-81
2022/09/20 05:43:10;;;;;;;3.90;1.20;;;9.50;99.90;;;;;;4131008;28;19944;-82
2022/09/20 05:45:22;;;;;;;4.35;0.90;;;9.60;99.90;;;;;;4104803;28;20515;-82
2022/09/20 05:47:58;;;;;;;2.97;0.95;;;9.60;99.90;;;;;;4131021;28;20428;-82
2022/09/20 05:50:05;;;;;;;5.60;1.00;;;9.60;99.90;;;;;;4106645;28;20061;-82
2022/09/20 05:52:27;;;;;;;7.05;1.25;;;9.60;99.90;;;;;;4148257;28;20052;-82
2022/09/20 05:54:53;;;;;;;5.35;1.00;;;9.70;99.90;;;;;;4148228;28;20514;-82
2022/09/20 05:57:06;;;;;;;4.88;0.90;;;9.70;99.90;;;;;;4148501;28;20518;-82
2022/09/20 05:59:45;;;;;;;6.22;1.30;;;9.70;99.90;;;;;;4147742;28;20105;-81
2022/09/20 06:02:08;;;;;;;6.53;0.95;;;9.70;99.90;;;;;;4091290;28;20222;-81
2022/09/20 06:04:16;;;;;;;3.65;0.85;;;9.60;99.90;;;;;;4147202;28;20050;-81
2022/09/20 06:06:37;;;;;;;3.45;0.90;;;9.70;99.90;;;;;;4149384;28;20550;-82
2022/09/20 06:08:59;;;;;;;4.28;1.65;;;9.70;99.90;;;;;;4134237;28;20444;-82
2022/09/20 06:11:28;;;;;;;12.27;1.30;;;9.70;99.90;;;;;;4131894;28;20042;-82
2022/09/20 06:14:12;;;;;;;8.30;1.00;;;9.70;99.90;;;;;;4135674;28;20412;-82
2022/09/20 06:16:24;;;;;;;3.05;0.93;;;9.80;99.90;;;;;;4148857;28;20053;-82
2022/09/20 06:18:37;;;;;;;5.63;1.10;;;9.80;99.90;;;;;;4130873;28;20165;-82
2022/09/20 06:21:02;;;;;;;5.50;1.30;;;10.00;99.90;;;;;;4152781;28;20050;-82
2022/09/20 06:23:04;;;;;;;4.50;0.52;;;10.10;99.90;;;;;;4161667;28;20053;-82
2022/09/20 06:25:08;;;;;;;2.90;0.60;;;10.20;99.90;;;;;;4147443;28;20155;-82
2022/09/20 06:27:18;;;;;;;5.35;1.23;;;10.30;99.90;;;;;;4150835;28;20499;-82
2022/09/20 06:29:28;;;;;;;6.47;1.10;;;10.30;99.90;;;;;;4147821;28;20046;-82
2022/09/20 06:31:29;;;;;;;2.17;0.75;;;10.40;99.90;;;;;;4147685;28;20038;-82
2022/09/20 06:33:30;;;;;;;4.55;0.70;;;10.40;99.90;;;;;;4148490;28;20057;-82
2022/09/20 06:35:57;;;;;;;5.63;0.55;;;10.50;99.90;;;;;;4130548;28;20053;-81
2022/09/20 06:41:27;;;;;;;2.97;0.47;;;10.50;99.90;;;;;;4165125;28;20083;-82
2022/09/20 06:43:20;;;;;;;3.78;1.13;;;10.50;99.90;;;;;;4164041;28;20182;-82
2022/09/20 06:45:21;;;;;;;7.40;1.10;;;10.60;99.90;;;;;;4163976;28;20049;-82
2022/09/20 06:47:22;;;;;;;3.22;0.43;;;10.60;99.90;;;;;;4164992;28;20065;-82
2022/09/20 06:49:27;;;;;;;4.05;0.60;;;10.60;99.90;;;;;;4165060;28;20511;-82
2022/09/20 06:51:32;;;;;;;3.40;0.80;;;10.60;99.90;;;;;;4165285;28;20488;-82
2022/09/20 06:53:38;;;;;;;3.75;0.70;;;10.60;99.90;;;;;;4165085;28;20095;-82
2022/09/20 06:55:42;;;;;;;4.47;0.55;;;10.70;99.90;;;;;;4164384;28;20046;-82
2022/09/20 06:57:44;;;;;;;5.55;0.63;;;10.70;99.90;;;;;;4164845;28;20434;-82
2022/09/20 06:59:45;;;;;;;5.10;0.90;;;10.70;99.90;;;;;;4164008;28;20124;-83
2022/09/20 07:01:46;;;;;;;5.43;1.10;;;10.80;99.90;;;;;;4161865;28;20492;-82
2022/09/20 07:03:47;;;;;;;0.55;0.20;;;10.80;99.90;;;;;;4152423;28;20049;-82
2022/09/20 07:05:48;;;;;;;4.88;0.55;;;10.80;99.90;;;;;;4153843;28;20054;-82
2022/09/20 07:07:49;;;;;;;7.15;0.63;;;10.80;99.90;;;;;;4148061;28;20538;-82
2022/09/20 07:09:50;;;;;;;4.43;0.85;;;10.90;99.90;;;;;;4159664;28;20037;-82
2022/09/20 07:11:50;;;;;;;3.15;0.70;;;10.90;99.90;;;;;;4167742;28;20041;-82
2022/09/20 07:13:53;;;;;;;4.65;0.73;;;11.00;99.90;;;;;;4167765;28;20057;-82
2022/09/20 07:16:01;;;;;;;3.70;0.70;;;11.00;99.90;;;;;;4167902;28;20045;-82
2022/09/20 07:18:01;;;;;;;3.35;0.60;;;11.10;99.90;;;;;;4146757;28;20133;-82
2022/09/20 07:20:02;;;;;;;2.47;1.08;;;11.10;99.90;;;;;;4162577;28;20037;-82
2022/09/20 07:22:03;;;;;;;3.03;0.70;;;11.20;99.90;;;;;;4151454;28;20049;-82
2022/09/20 07:24:04;;;;;;;5.28;0.88;;;11.40;99.90;;;;;;4154910;28;20044;-82
2022/09/20 07:26:05;;;;;;;2.90;0.50;;;11.50;99.90;;;;;;4167043;28;20481;-82
2022/09/20 07:28:06;;;;;;;5.95;0.75;;;11.50;99.90;;;;;;4167632;28;20173;-82
2022/09/20 07:30:07;;;;;;;2.80;0.65;;;11.80;99.90;;;;;;4167413;28;20111;-82
2022/09/20 07:32:08;;;;;;;3.25;0.70;;;12.00;99.90;;;;;;4167436;28;20403;-82
2022/09/20 07:34:09;;;;;;;5.18;1.08;;;12.30;99.90;;;;;;4167155;28;20045;-82
2022/09/20 07:36:11;;;;;;;5.18;0.55;;;12.70;99.90;;;;;;4164361;28;20451;-83
2022/09/20 07:38:12;;;;;;;6.72;0.88;;;13.30;99.90;;;;;;4151097;28;20052;-82
2022/09/20 07:40:13;;;;;;;1.30;0.47;;;13.90;99.90;;;;;;4150832;28;20055;-83
2022/09/20 07:42:14;;;;;;;3.63;0.40;;;14.70;99.60;;;;;;4151383;28;20100;-82
2022/09/20 07:44:24;;;;;;;7.38;0.60;;;15.40;98.50;;;;;;4150464;28;20046;-82
2022/09/20 07:46:25;;;;;;;5.22;1.10;;;16.20;97.40;;;;;;4150241;28;20404;-82
2022/09/20 07:48:31;;;;;;;4.78;0.47;;;16.90;96.20;;;;;;4149704;28;20046;-83
2022/09/20 07:50:35;;;;;;;3.67;0.45;;;17.50;95.30;;;;;;4149285;28;20111;-83
2022/09/20 07:52:36;;;;;;;2.78;0.50;;;18.10;94.40;;;;;;4132384;28;20058;-83
2022/09/20 07:54:36;;;;;;;4.53;0.57;;;18.50;93.70;;;;;;4148989;28;20133;-83
2022/09/20 07:56:37;;;;;;;5.10;0.85;;;18.90;93.10;;;;;;4149098;28;20120;-83
2022/09/20 07:58:38;;;;;;;2.22;0.60;;;19.40;92.70;;;;;;4149288;28;20476;-84
2022/09/20 08:00:39;;;;;;;2.92;0.50;;;19.70;92.10;;;;;;4149120;28;20128;-84
2022/09/20 08:02:39;;;;;;;3.08;0.45;;;20.10;91.80;;;;;;4148717;28;20341;-84
2022/09/20 08:04:40;;;;;;;2.17;0.40;;;20.40;91.40;;;;;;4149531;28;20081;-84
2022/09/20 08:06:43;;;;;;;2.67;0.60;;;20.80;91.00;;;;;;4149040;28;20049;-84
2022/09/20 08:08:43;;;;;;;7.15;0.60;;;21.20;90.80;;;;;;4149752;28;20514;-83
2022/09/20 08:10:45;;;;;;;4.93;0.40;;;21.40;90.40;;;;;;4149446;28;20078;-85
2022/09/20 08:12:45;;;;;;;5.18;0.68;;;21.70;90.10;;;;;;4127390;28;20057;-84
2022/09/20 08:14:46;;;;;;;5.15;0.55;;;21.90;89.40;;;;;;4116067;28;20082;-83
2022/09/20 08:16:49;;;;;;;1.38;0.35;;;22.20;88.90;;;;;;4118385;28;20461;-83
2022/09/20 08:18:59;;;;;;;7.68;0.75;;;22.40;88.60;;;;;;4133097;28;20125;-84
2022/09/20 08:21:18;;;;;;;3.92;0.70;;;22.20;88.00;;;;;;4147415;28;20057;-83
2022/09/20 08:23:18;;;;;;;;;;;21.40;84.60;;;;;;4134839;28;20111;-83
2022/09/20 08:25:19;;;;;;;2.85;0.40;;;20.80;84.60;;;;;;4133797;28;19922;-83
2022/09/20 08:27:19;;;;;;;6.25;0.50;;;20.80;90.30;;;;;;4134155;28;20047;-83
2022/09/20 08:29:20;;;;;;;2.75;0.28;;;21.40;90.00;;;;;;4120890;28;20077;-84
2022/09/20 08:31:23;;;;;;;3.22;0.60;;;21.90;88.30;;;;;;4132950;28;20061;-83
2022/09/20 08:33:24;;;;;;;4.82;0.63;;;22.40;87.00;;;;;;4150179;28;20054;-83
2022/09/20 08:35:27;;;;;;;2.67;0.35;;;22.50;86.60;;;;;;4150349;28;20547;-83
2022/09/20 08:37:28;;;;;;;2.58;0.50;;;22.60;86.00;;;;;;4150672;28;20048;-84
2022/09/20 08:39:28;;;;;;;4.72;0.50;;;22.70;85.00;;;;;;4150520;28;20066;-83
2022/09/20 08:41:49;;;;;;;5.30;0.98;;;22.30;84.50;;;;;;4150069;28;20141;-84
2022/09/20 08:43:53;;;;;;;4.22;0.60;;;21.50;84.30;;;;;;4150109;28;20100;-84
2022/09/20 08:45:57;;;;;;;6.15;0.52;;;20.70;86.10;;;;;;4132245;28;20149;-84
2022/09/20 08:48:01;;;;;;;2.33;0.40;;;20.10;87.50;;;;;;4151838;28;20458;-84
2022/09/20 08:50:09;;;;;;;2.33;0.40;;;19.50;88.40;;;;;;4149437;28;20117;-83
2022/09/20 08:52:18;;;;;;;2.35;0.30;;;19.00;88.60;;;;;;4132311;28;20050;-82
2022/09/20 08:54:18;;;;;;;1.37;0.20;;;18.60;89.90;;;;;;4150093;28;20538;-83
2022/09/20 08:56:20;;;;;;;1.75;0.20;;;18.30;90.40;;;;;;4132821;28;20042;-83
2022/09/20 08:58:20;;;;;;;2.05;0.30;;;18.10;90.70;;;;;;4151415;28;20045;-83
2022/09/20 09:00:30;;;;;;;1.27;0.40;;;18.00;90.80;;;;;;4137021;28;20533;-83
2022/09/20 09:02:33;;;;;;;3.10;0.20;;;18.40;90.50;;;;;;4166152;28;20099;-83
2022/09/20 09:04:35;;;;;;;1.70;0.32;;;19.20;90.00;;;;;;4162173;28;20558;-83
2022/09/20 09:06:37;;;;;;;0.77;0.30;;;20.00;88.20;;;;;;4133091;28;20057;-84
2022/09/20 09:08:38;;;;;;;0.82;0.25;;;20.80;85.90;;;;;;4149749;28;20100;-84
2022/09/20 09:10:39;;;;;;;2.30;0.40;;;21.40;83.70;;;;;;4149471;28;20492;-83
2022/09/20 09:12:45;;;;;;;2.03;0.20;;;21.90;81.70;;;;;;4131968;28;20136;-84
2022/09/20 09:14:53;;;;;;;2.78;0.43;;;22.40;79.70;;;;;;4149252;28;20381;-84
2022/09/20 09:16:54;;;;;;;1.80;0.40;;;22.30;79.20;;;;;;4153587;28;20085;-84
2022/09/20 09:18:56;;;;;;;2.63;0.35;;;21.90;79.70;;;;;;4165424;28;20780;-83
2022/09/20 09:20:58;;;;;;;1.27;0.65;;;21.40;80.70;;;;;;4165398;28;20041;-83
2022/09/20 09:23:02;;;;;;;4.57;0.73;;;21.00;81.60;;;;;;4148034;28;20085;-84
2022/09/20 09:25:17;;;;;;;2.95;0.40;;;20.60;81.20;;;;;;4147987;28;20061;-84
2022/09/20 09:27:18;;;;;;;1.88;0.52;;;20.30;80.30;;;;;;4164289;28;20046;-83
2022/09/20 09:29:22;;;;;;;2.13;0.40;;;20.20;81.40;;;;;;4147057;28;20042;-83
2022/09/20 09:31:24;;;;;;;3.22;0.38;;;20.10;81.30;;;;;;4164448;28;20061;-85
2022/09/20 09:33:27;;;;;;;4.80;0.52;;;19.90;82.00;;;;;;4164630;28;20534;-83
2022/09/20 09:35:30;;;;;;;2.00;0.30;;;19.70;82.10;;;;;;4164501;28;20116;-83
2022/09/20 09:37:31;;;;;;;2.50;0.30;;;19.60;82.80;;;;;;4164147;28;20045;-83
2022/09/20 09:39:36;;;;;;;2.95;0.22;;;19.40;82.40;;;;;;4146753;28;20411;-83
2022/09/20 09:41:37;;;;;;;1.23;0.38;;;19.30;81.90;;;;;;4163976;28;20044;-83
2022/09/20 09:43:39;;;;;;;2.15;0.40;;;19.10;81.80;;;;;;4148563;28;20485;-83
2022/09/20 09:45:40;;;;;;;2.13;0.70;;;19.00;81.80;;;;;;4147792;28;20066;-83
2022/09/20 09:47:41;;;;;;;1.98;0.22;;;18.90;81.80;;;;;;4130526;28;20093;-83
2022/09/20 09:49:56;;;;;;;1.45;0.35;;;18.80;81.50;;;;;;4130063;28;20043;-83
2022/09/20 09:52:12;;;;;;;1.35;0.35;;;18.70;80.00;;;;;;4147755;28;20049;-83
2022/09/20 09:54:18;;;;;;;8.05;0.50;;;18.70;81.10;;;;;;4145973;28;20030;-83
2022/09/20 09:56:46;;;;;;;0.95;0.22;;;18.70;81.00;;;;;;4130802;28;20039;-84
2022/09/20 09:59:06;;;;;;;1.55;0.30;;;18.80;80.10;;;;;;4149010;28;20038;-84
2022/09/20 10:01:20;;;;;;;1.58;0.75;;;18.90;81.70;;;;;;4149140;28;20038;-84
2022/09/20 10:03:34;;;;;;;2.63;0.40;;;19.10;81.10;;;;;;4131424;28;20054;-84
2022/09/20 10:05:58;;;;;;;3.25;0.35;;;19.30;80.10;;;;;;4148170;28;20125;-84
2022/09/20 10:08:27;;;;;;;2.67;0.40;;;19.50;79.60;;;;;;4115089;28;20047;-84
2022/09/20 10:10:38;;;;;;;4.00;0.50;;;19.60;77.40;;;;;;4148722;28;20046;-84
2022/09/20 10:13:04;;;;;;;2.45;0.30;;;19.70;78.60;;;;;;4130682;28;20125;-83
2022/09/20 10:15:34;;;;;;;3.00;0.45;;;19.80;79.30;;;;;;4145724;28;20508;-84
2022/09/20 10:17:44;;;;;;;3.28;0.40;;;19.80;78.20;;;;;;4147730;28;20056;-84
2022/09/20 10:20:21;;;;;;;3.60;0.73;;;20.00;77.50;;;;;;4148762;28;20049;-84
2022/09/20 10:22:28;;;;;;;1.95;0.40;;;20.30;75.30;;;;;;4148171;28;20046;-84
2022/09/20 10:25:15;;;;;;;4.75;0.40;;;20.60;76.90;;;;;;4148567;28;20049;-84
2022/09/20 10:27:37;;;;;;;3.15;0.60;;;21.00;76.20;;;;;;4148276;28;20412;-84
2022/09/20 10:30:21;;;;;;;1.65;0.38;;;21.30;75.10;;;;;;4152597;28;20463;-83
2022/09/20 10:32:31;;;;;;;2.78;0.50;;;21.30;73.90;;;;;;4098202;29;20294;-84
2022/09/20 10:35:02;;;;;;;3.60;0.47;;;21.10;73.80;;;;;;4123366;28;20058;-83
2022/09/20 10:37:10;;;;;;;2.58;0.50;;;20.80;73.50;;;;;;4164095;28;20107;-83
2022/09/20 10:39:30;;;;;;;2.85;0.68;;;20.60;75.30;;;;;;4164658;28;20475;-84
2022/09/20 10:44:07;;;;;;;4.50;0.60;;;20.40;74.60;;;;;;4164495;28;20045;-84
2022/09/20 10:46:45;;;;;;;4.90;0.88;;;20.30;76.10;;;;;;4167790;28;20099;-84
2022/09/20 10:48:51;;;;;;;6.47;1.05;;;20.30;74.30;;;;;;4135182;28;20400;-83
2022/09/20 10:51:01;;;;;;;1.23;0.35;;;20.30;75.10;;;;;;4151111;28;20044;-83
2022/09/20 10:53:08;;;;;;;5.43;1.10;;;20.30;75.30;;;;;;4133996;28;20053;-84
2022/09/20 10:55:14;;;;;;;2.63;0.70;;;20.30;75.10;;;;;;4154341;28;20045;-84
2022/09/20 10:57:44;;;;;;;4.53;0.60;;;20.20;75.30;;;;;;4156864;28;20046;-84
2022/09/20 11:00:11;;;;;;;3.28;0.70;;;20.10;74.30;;;;;;4167380;28;20050;-83
2022/09/20 11:02:29;;;;;;;4.80;0.70;;;20.10;75.70;;;;;;4157686;28;20076;-83
2022/09/20 11:05:06;;;;;;;6.70;1.15;;;20.10;74.50;;;;;;4151624;28;20044;-84
2022/09/20 11:07:15;;;;;;;4.28;0.55;;;20.10;73.90;;;;;;4150709;28;20060;-83
2022/09/20 11:09:18;;;;;;;;;;;20.10;74.80;;;;;;4151611;28;20403;-83
2022/09/20 11:11:24;;;;;;;5.18;0.80;;;20.30;71.70;;;;;;4151489;28;20290;-83
2022/09/20 11:13:49;;;;;;;4.55;0.55;;;20.30;73.60;;;;;;4145573;28;20130;-83
2022/09/20 11:16:00;;;;;;;4.22;0.80;;;20.40;70.80;;;;;;4136427;28;20046;-83
2022/09/20 11:18:25;;;;;;;4.82;0.75;;;20.50;72.30;;;;;;4122956;28;20126;-83
2022/09/20 11:20:31;;;;;;;4.75;0.80;;;20.50;68.90;;;;;;4167676;28;20042;-82
2022/09/20 11:22:55;;;;;;;2.55;0.50;;;20.70;71.80;;;;;;4167987;28;20048;-83
2022/09/20 11:25:05;;;;;;;1.55;0.40;;;21.10;71.20;;;;;;4166960;28;20052;-84
2022/09/20 11:27:20;;;;;;;5.03;0.30;;;21.80;69.10;;;;;;4160151;28;20046;-84
2022/09/20 11:29:34;;;;;;;2.60;0.90;;;22.50;69.10;;;;;;4163828;28;20045;-84
2022/09/20 11:31:41;;;;;;;5.40;0.60;;;23.00;65.90;;;;;;4164090;28;20511;-84
2022/09/20 11:33:52;;;;;;;1.92;0.47;;;23.20;65.90;;;;;;4144507;28;20054;-84
2022/09/20 11:35:57;;;;;;;3.67;0.40;;;23.60;66.00;;;;;;4149490;28;20065;-83
2022/09/20 11:38:23;;;;;;;3.35;0.63;;;24.20;66.30;;;;;;4155804;28;20048;-83
2022/09/20 11:40:26;;;;;;;4.68;0.77;;;24.50;64.10;;;;;;4147833;28;20045;-83
2022/09/20 11:42:32;;;;;;;8.20;1.13;;;24.00;65.50;;;;;;4167587;28;20457;-83